Main page
METAR-TAF:

METAR-TAF

Airports :

Málaga Airport

Málaga, Spain

latitude: 36-40N, longitude: 004-29W, elevation: 16 m

Current weather observation

The report was made 14 minutes ago, at 18:00 UTC
Wind 6 kt from the West/Northwest
Temperature 14°C
Humidity 63%
Pressure 1025 hPa
Visibility 10 km or more
Few clouds at a height of 6000 ft

METAR: LEMG 271800Z 30006KT 9999 FEW060 14/07 Q1025 NOSIG

Time: 19:14 (18:14 UTC)

Forecast

The report was made 1 hour and 14 minutes ago, at 17:00 UTC
Forecast valid from 27 at 18 UTC to 28 at 18 UTC
Wind 11 kt from the West/Northwest
Visibility 10 km or more
Few clouds at a height of 4000 ft
Probability 40% :
Temporary
from 27 at 23 UTC to 28 at 06 UTC
Wind 15 kt from the West with gusts up to 25 kt

TAF: LEMG 271700Z 2718/2818 29011KT 9999 FEW040 TX20/2814Z TN10/2806Z PROB40 TEMPO 2723/2806 27015G25KT

Weather observations and forecasts of more than 4000 airports (METAR and TAF reports).

The available stations are represented by yellow and red dots on the map.

Hover mouse over dot to see the name of the station.

Then click to see weather observations and forecasts.

To change the map : click on the green buttons with a black cross to zoom in, on the green button with a dash to zoom out, or on the green arrows for adjacent maps.


METAR-TAF: